createdAt,value
2017-02-19T00:01:54.558Z,65
2017-02-19T00:04:17.792Z,66.29
2017-02-19T00:06:41.893Z,66.77
2017-02-19T00:09:11.926Z,65.75
2017-02-19T00:11:35.206Z,65.66
2017-02-19T00:14:04.934Z,65.72
2017-02-19T00:16:28.971Z,65.75
2017-02-19T00:18:51.926Z,64.81
2017-02-19T00:21:15.189Z,64.9
2017-02-19T00:23:38.579Z,64.24
2017-02-19T00:26:02.719Z,65
2017-02-19T00:30:02.820Z,66.67
2017-02-19T00:32:26.974Z,67.43
2017-02-19T00:34:52.122Z,67.05
2017-02-19T00:37:15.125Z,67.14
2017-02-19T00:39:40.410Z,67.05
2017-02-19T00:42:04.448Z,66.42
2017-02-19T00:44:29.798Z,65.82
2017-02-19T00:46:55.138Z,66.01
2017-02-19T00:49:19.166Z,65.19
2017-02-19T00:51:42.673Z,64.24
2017-02-19T00:54:07.709Z,63.76
2017-02-19T00:56:30.929Z,63.29
2017-02-19T00:58:55.975Z,63.1
2017-02-19T01:01:20.507Z,61.8
2017-02-19T01:03:48.746Z,61.42
2017-02-19T01:06:14.416Z,61.87
2017-02-19T01:08:40.104Z,61.23
2017-02-19T01:11:04.653Z,61.23
2017-02-19T01:13:28.879Z,60.76
2017-02-19T01:15:52.852Z,61.71
2017-02-19T01:18:16.849Z,61.2
2017-02-19T01:20:41.109Z,61.96
2017-02-19T01:23:12.484Z,60.66
2017-02-19T01:25:42.873Z,60.85
2017-02-19T01:28:14.863Z,61.42
2017-02-19T01:30:38.188Z,61.33
2017-02-19T01:33:02.577Z,61.23
2017-02-19T01:35:27.262Z,62.24
2017-02-19T01:38:05.037Z,61.9
2017-02-19T01:40:28.515Z,62.15
2017-02-19T01:42:52.392Z,62.91
2017-02-19T01:59:49.580Z,63.39
2017-02-19T02:02:12.816Z,63.2
2017-02-19T02:04:37.035Z,62.53
2017-02-19T02:07:01.876Z,61.58
2017-02-19T02:09:27.455Z,61.96
2017-02-19T02:11:51.486Z,61.87
2017-02-19T02:14:14.384Z,61.87
2017-02-19T02:16:45.762Z,61.77
2017-02-19T02:19:11.123Z,62.43
2017-02-19T02:21:36.319Z,62.53
2017-02-19T02:24:02.019Z,63.2
2017-02-19T02:26:25.708Z,62.15
2017-02-19T02:28:49.086Z,62.62
2017-02-19T02:31:12.555Z,61.68
2017-02-19T02:33:36.973Z,61.77
2017-02-19T02:35:52.598Z,62.34
2017-02-19T02:38:16.273Z,61.96
2017-02-19T02:40:41.571Z,62.72
2017-02-19T02:43:05.112Z,62.53
2017-02-19T02:45:30.255Z,62.05
2017-02-19T02:47:53.664Z,63.29
2017-02-19T02:50:16.811Z,62.43
2017-02-19T02:52:41.053Z,62.43
2017-02-19T02:55:04.094Z,62.97
2017-02-19T02:57:27.506Z,63.07
2017-02-19T02:59:50.516Z,62.97
2017-02-19T03:02:13.648Z,63.64
2017-02-19T03:04:38.450Z,63.26
2017-02-19T03:07:01.715Z,63.73
2017-02-19T03:09:26.377Z,63.45
2017-02-19T03:11:49.873Z,63.54
2017-02-19T03:14:14.912Z,63.26
2017-02-19T03:16:38.299Z,64.3
2017-02-19T03:18:55.045Z,66.16
2017-02-19T03:21:18.357Z,66.74
2017-02-19T03:23:42.838Z,66.83
2017-02-19T03:25:58.928Z,67.11
2017-02-19T03:28:23.965Z,67.3
2017-02-19T03:30:54.568Z,65.97
2017-02-19T03:33:21.381Z,65.97
2017-02-19T03:35:44.475Z,65.41
2017-02-19T03:38:09.895Z,65.44
2017-02-19T03:40:48.344Z,65.97
2017-02-19T03:43:13.476Z,67.68
2017-02-19T03:45:38.511Z,68.4
2017-02-19T03:48:02.112Z,67.3
2017-02-19T03:50:25.715Z,68.12
2017-02-19T03:52:51.028Z,68.69
2017-02-19T03:55:21.869Z,69.17
2017-02-19T03:57:46.165Z,68.79
2017-02-19T04:00:19.882Z,68.59
2017-02-19T04:02:44.311Z,67.65
2017-02-19T04:05:08.538Z,67.21
2017-02-19T04:07:38.858Z,66.16
2017-02-19T04:09:41.146Z,65.78
2017-02-19T04:12:20.381Z,65.5
2017-02-19T04:14:46.203Z,65.22
2017-02-19T04:17:09.932Z,66.07
2017-02-19T04:19:35.662Z,66.35
2017-02-19T04:21:58.718Z,66.54
2017-02-19T04:24:21.767Z,68.31
2017-02-19T04:26:45.115Z,68.44
2017-02-19T04:29:08.620Z,68.21
2017-02-19T04:31:33.267Z,67.96
2017-02-19T04:33:58.280Z,67.93
2017-02-19T04:36:21.748Z,67.74
2017-02-19T04:38:44.811Z,67.77
2017-02-19T04:41:07.929Z,67.3
2017-02-19T04:43:30.922Z,67.74
2017-02-19T04:45:57.028Z,67.93
2017-02-19T04:48:21.182Z,68.98
2017-02-19T04:50:44.691Z,68.98
2017-02-19T04:53:09.576Z,69.64
2017-02-19T04:55:35.804Z,69.45
2017-02-19T04:58:00.296Z,68.69
2017-02-19T05:00:16.966Z,68.79
2017-02-19T05:02:41.384Z,69.07
2017-02-19T05:05:05.440Z,68.69
2017-02-19T05:07:29.539Z,68.59
2017-02-19T05:09:56.651Z,68.88
2017-02-19T05:12:23.120Z,69.92
2017-02-19T05:14:50.795Z,69.17
2017-02-19T05:17:16.528Z,69.92
2017-02-19T05:19:39.897Z,70.97
2017-02-19T05:22:03.538Z,69.64
2017-02-19T05:24:33.792Z,69.92
2017-02-19T05:27:05.613Z,70.01
2017-02-19T05:29:31.147Z,69.45
2017-02-19T05:31:56.143Z,70.01
2017-02-19T05:34:22.448Z,70.55
2017-02-19T05:36:38.640Z,70.11
2017-02-19T05:39:03.408Z,70.68
2017-02-19T05:41:26.373Z,70.58
2017-02-19T05:43:50.555Z,71.69
2017-02-19T05:46:21.093Z,71.15
2017-02-19T05:48:46.221Z,71.25
2017-02-19T05:51:09.480Z,70.58
2017-02-19T05:53:34.467Z,70.97
2017-02-19T05:55:57.274Z,71.59
2017-02-19T05:58:21.187Z,71.72
2017-02-19T06:00:44.248Z,70.87
2017-02-19T06:03:07.593Z,71.34
2017-02-19T06:05:32.106Z,71.53
2017-02-19T06:07:55.207Z,71.53
2017-02-19T06:10:20.555Z,71.21
2017-02-19T06:12:44.810Z,72.16
2017-02-19T06:15:10.688Z,71.81
2017-02-19T06:17:37.196Z,70.58
2017-02-19T06:20:01.239Z,71.34
2017-02-19T06:22:24.535Z,70.11
2017-02-19T06:24:48.372Z,70.58
2017-02-19T06:27:11.685Z,71.4
2017-02-19T06:29:35.738Z,72.06
2017-02-19T06:32:00.870Z,71.31
2017-02-19T06:34:30.922Z,70.49
2017-02-19T06:36:47.124Z,69.35
2017-02-19T06:39:11.190Z,69.07
2017-02-19T06:41:34.452Z,68.59
2017-02-19T06:43:57.627Z,68.25
2017-02-19T06:46:20.647Z,68.44
2017-02-19T06:48:44.824Z,67.65
2017-02-19T06:51:08.369Z,66.64
2017-02-19T06:53:32.425Z,66.54
2017-02-19T06:55:57.034Z,66.74
2017-02-19T06:58:20.703Z,67.08
2017-02-19T07:00:45.830Z,65.69
2017-02-19T07:03:08.835Z,61.11
2017-02-19T07:05:33.468Z,56.96
2017-02-19T07:07:58.840Z,54.14
2017-02-19T07:10:21.729Z,49.63
2017-02-19T07:14:23.735Z,49.27
2017-02-19T07:16:48.681Z,44.18
2017-02-19T07:19:13.977Z,41.99
2017-02-19T07:21:39.015Z,45.68
2017-02-19T07:24:02.874Z,45.11
2017-02-19T07:26:34.723Z,44.37
2017-02-19T07:28:58.038Z,41.27
2017-02-19T07:31:21.531Z,38.62
2017-02-19T07:33:44.934Z,34.48
2017-02-19T07:36:09.419Z,31.26
2017-02-19T07:38:32.915Z,30.11
2017-02-19T07:40:56.468Z,30.02
2017-02-19T07:43:11.659Z,29.94
2017-02-19T07:45:35.342Z,28.59
2017-02-19T07:47:59.097Z,27.66
2017-02-19T07:50:22.879Z,26.71
2017-02-19T07:52:46.691Z,23.5
2017-02-19T07:55:10.588Z,22.08
2017-02-19T07:57:35.094Z,21.69
2017-02-19T08:00:05.669Z,21.97
2017-02-19T08:02:29.739Z,22.45
2017-02-19T08:04:53.812Z,21.32
2017-02-19T08:07:17.936Z,25.18
2017-02-19T08:09:42.118Z,19.9
2017-02-19T08:12:06.332Z,19.61
2017-02-19T08:14:30.531Z,17.98
2017-02-19T08:16:54.821Z,17.13
2017-02-19T08:19:19.196Z,17.9
2017-02-19T08:21:21.100Z,15.7
2017-02-19T08:23:45.554Z,13.04
2017-02-19T08:26:09.999Z,13.32
2017-02-19T08:28:34.465Z,12.48
2017-02-19T08:30:58.893Z,13.79
2017-02-19T08:33:23.465Z,12.08
2017-02-19T08:35:47.785Z,12.08
2017-02-19T08:38:12.269Z,13.42
2017-02-19T08:40:36.690Z,11.32
2017-02-19T08:43:01.118Z,9.59
2017-02-19T08:45:25.450Z,12.74
2017-02-19T08:47:49.802Z,14.74
2017-02-19T08:50:14.258Z,12.55
2017-02-19T08:52:29.994Z,13.61
2017-02-19T08:54:54.395Z,15.23
2017-02-19T08:57:18.707Z,14.47
2017-02-19T08:59:34.505Z,14.57
2017-02-19T09:01:58.696Z,12.76
2017-02-19T09:04:22.901Z,18.07
2017-02-19T09:06:47.037Z,24.51
2017-02-19T09:09:11.178Z,29.35
2017-02-19T09:11:35.308Z,31.93
2017-02-19T09:13:59.335Z,33.52
2017-02-19T09:16:23.338Z,33.52
2017-02-19T09:18:47.289Z,33.83
2017-02-19T09:21:11.241Z,33.42
2017-02-19T09:23:35.049Z,35.87
2017-02-19T09:25:58.913Z,38.15
2017-02-19T09:28:22.717Z,38.91
2017-02-19T09:30:46.673Z,40.58
2017-02-19T09:33:10.313Z,39.95
2017-02-19T09:35:33.938Z,39.67
2017-02-19T09:37:57.467Z,38.54
2017-02-19T09:40:21.032Z,41.17
2017-02-19T09:42:44.587Z,40.63
2017-02-19T09:45:08.179Z,41.2
2017-02-19T09:47:31.829Z,39.5
2017-02-19T09:49:46.874Z,38.47
2017-02-19T09:52:10.485Z,39.78
2017-02-19T09:54:33.972Z,38.93
2017-02-19T09:56:57.607Z,41
2017-02-19T09:59:21.537Z,41.77
2017-02-19T10:01:32.739Z,40.81
2017-02-19T10:03:56.596Z,44.01
2017-02-19T10:06:20.233Z,47.32
2017-02-19T10:08:43.617Z,45.73
2017-02-19T10:11:07.480Z,44.49
2017-02-19T10:13:30.958Z,45.73
2017-02-19T10:15:54.494Z,47.04
2017-02-19T10:18:17.850Z,46.68
2017-02-19T10:20:34.225Z,49.58
2017-02-19T10:22:57.926Z,49.49
2017-02-19T10:25:21.224Z,50.44
2017-02-19T10:27:44.632Z,49.3
2017-02-19T10:30:08.043Z,49.32
2017-02-19T10:32:31.578Z,49.77
2017-02-19T10:34:54.859Z,50.63
2017-02-19T10:37:18.150Z,51.87
2017-02-19T10:39:41.411Z,50.92
2017-02-19T10:42:04.744Z,50.54
2017-02-19T10:44:28.130Z,48.56
2017-02-19T10:46:51.395Z,47.06
2017-02-19T10:49:14.774Z,48.47
2017-02-19T10:51:38.158Z,49.3
2017-02-19T10:54:01.519Z,48.94
2017-02-19T10:56:25.027Z,49.61
2017-02-19T10:58:48.693Z,50.92
2017-02-19T11:01:11.984Z,51.01
2017-02-19T11:03:35.372Z,49.9
2017-02-19T11:05:58.907Z,49.13
2017-02-19T11:08:22.235Z,48.39
2017-02-19T11:10:45.592Z,46.61
2017-02-19T11:13:09.069Z,47.44
2017-02-19T11:15:32.335Z,48.02
2017-02-19T11:17:55.835Z,48.94
2017-02-19T11:21:56.082Z,45.56
2017-02-19T11:24:19.654Z,45.47
2017-02-19T11:26:43.057Z,46.42
2017-02-19T11:29:06.393Z,46.87
2017-02-19T11:31:21.345Z,48.18
2017-02-19T11:33:44.626Z,47.28
2017-02-19T11:36:07.954Z,46.42
2017-02-19T11:38:31.372Z,47.56
2017-02-19T11:40:54.675Z,47.18
2017-02-19T11:43:18.073Z,47.16
2017-02-19T11:45:41.441Z,45.65
2017-02-19T11:48:04.814Z,44.82
2017-02-19T11:50:28.179Z,43.32
2017-02-19T11:52:51.551Z,46.04
2017-02-19T11:55:06.491Z,46.23
2017-02-19T11:57:29.896Z,44.44
2017-02-19T11:59:53.228Z,45.75
2017-02-19T12:02:16.652Z,45.47
2017-02-19T12:06:16.285Z,45.78
2017-02-19T12:08:40.534Z,44.44
2017-02-19T12:11:05.804Z,43.77
2017-02-19T12:13:35.008Z,45.2
2017-02-19T12:15:57.334Z,44.44
2017-02-19T12:18:23.664Z,45.58
2017-02-19T12:20:49.292Z,46.44
2017-02-19T12:23:14.103Z,47.18
2017-02-19T12:25:39.570Z,46.61
2017-02-19T12:28:04.099Z,45.58
2017-02-19T12:30:28.376Z,45.2
2017-02-19T12:33:01.505Z,47.18
2017-02-19T12:35:25.142Z,46.15
2017-02-19T12:37:50.542Z,43.96
2017-02-19T12:40:06.111Z,46.8
2017-02-19T12:42:30.076Z,47.37
2017-02-19T12:44:54.060Z,46.25
2017-02-19T12:47:17.555Z,47.66
2017-02-19T12:49:41.491Z,47.75
2017-02-19T12:52:05.065Z,47.28
2017-02-19T12:54:29.115Z,47.47
2017-02-19T12:56:54.185Z,47.56
2017-02-19T12:59:09.434Z,46.8
2017-02-19T13:01:33.479Z,46.34
2017-02-19T13:03:57.175Z,47.56
2017-02-19T13:06:21.238Z,46.34
2017-02-19T13:10:28.442Z,46.42
2017-02-19T13:12:55.218Z,46.15
2017-02-19T13:15:18.448Z,44.73
2017-02-19T13:17:53.396Z,43.98
2017-02-19T13:20:18.526Z,44.56
2017-02-19T13:22:43.064Z,44.73
2017-02-19T13:25:11.793Z,46.8
2017-02-19T13:27:35.125Z,46.99
2017-02-19T13:30:03.037Z,46.82
2017-02-19T13:32:35.701Z,46.7
2017-02-19T13:34:57.336Z,46.32
2017-02-19T13:37:31.539Z,45.87
2017-02-19T13:39:51.449Z,45.68
2017-02-19T13:42:15.645Z,44.46
2017-02-19T13:44:39.010Z,43.98
2017-02-19T13:47:03.858Z,44.15
2017-02-19T13:49:28.581Z,44.06
2017-02-19T13:51:52.152Z,43.89
2017-02-19T13:54:15.829Z,41.81
2017-02-19T13:56:39.869Z,43.13
2017-02-19T13:59:03.917Z,43.2
2017-02-19T14:01:27.767Z,43.98
2017-02-19T14:03:51.720Z,43.7
2017-02-19T14:06:16.419Z,43.22
2017-02-19T14:08:41.245Z,43.89
2017-02-19T14:11:05.282Z,43.79
2017-02-19T14:13:29.850Z,44.82
2017-02-19T14:16:00.267Z,44.44
2017-02-19T14:18:24.087Z,45.68
2017-02-19T14:20:48.059Z,45.49
2017-02-19T14:23:11.886Z,46.06
2017-02-19T14:25:43.575Z,45.97
2017-02-19T14:28:09.406Z,45.97
2017-02-19T14:30:40.678Z,46.25
2017-02-19T14:33:08.166Z,47.3
2017-02-19T14:35:38.967Z,46.06
2017-02-19T14:41:46.365Z,46.44
2017-02-19T14:43:58.018Z,45.87
2017-02-19T14:46:22.751Z,46.34
2017-02-19T14:48:46.423Z,46.34
2017-02-19T14:51:05.764Z,47.39
2017-02-19T14:53:15.615Z,47.56
2017-02-19T14:55:39.170Z,46.82
2017-02-19T14:58:02.758Z,45.68
2017-02-19T15:00:27.040Z,46.34
2017-02-19T15:02:50.529Z,46.25
2017-02-19T15:05:14.352Z,45.32
2017-02-19T15:07:29.838Z,45.78
2017-02-19T15:09:55.790Z,46.15
2017-02-19T15:11:59.479Z,45.61
2017-02-19T15:14:10.221Z,44.84
2017-02-19T15:16:33.918Z,44.74
2017-02-19T15:18:57.569Z,45.29
2017-02-19T15:21:21.132Z,45.68
2017-02-19T15:23:45.114Z,45.87
2017-02-19T15:26:09.294Z,45.49
2017-02-19T15:28:34.601Z,45.51
2017-02-19T15:30:58.280Z,45.61
2017-02-19T15:33:23.423Z,47.2
2017-02-19T15:35:46.019Z,46.92
2017-02-19T15:38:11.001Z,47.2
2017-02-19T15:40:34.732Z,46.73
2017-02-19T15:42:59.494Z,47.2
2017-02-19T15:45:32.067Z,47.68
2017-02-19T15:48:14.490Z,46.63
2017-02-19T15:56:17.907Z,47.58
2017-02-19T15:58:51.296Z,47.94
2017-02-19T16:00:55.256Z,47.39
2017-02-19T16:03:20.130Z,47.85
2017-02-19T16:05:43.940Z,48.13
2017-02-19T16:08:08.523Z,48.25
2017-02-19T16:10:33.970Z,47.39
2017-02-19T16:12:57.521Z,48.99
2017-02-19T16:15:22.302Z,49.08
2017-02-19T16:17:25.128Z,50.71
2017-02-19T16:19:57.275Z,49.4
2017-02-19T16:29:00.656Z,49.02
2017-02-19T16:31:34.315Z,48.63
2017-02-19T16:42:07.253Z,48.8
2017-02-19T16:44:44.733Z,48.99
2017-02-19T16:47:11.843Z,49.37
2017-02-19T16:49:32.955Z,48.99
2017-02-19T16:51:57.243Z,48.44
2017-02-19T16:54:21.197Z,49.08
2017-02-19T16:56:46.771Z,49.56
2017-02-19T16:59:09.878Z,49.95
2017-02-19T17:01:35.979Z,50.13
2017-02-19T17:03:59.718Z,50.87
2017-02-19T17:06:22.995Z,50.68
2017-02-19T17:08:46.403Z,50.42
2017-02-19T17:11:12.531Z,50.04
2017-02-19T17:13:35.890Z,49.85
2017-02-19T17:15:59.362Z,50.04
2017-02-19T17:18:22.792Z,49.28
2017-02-19T17:20:46.177Z,49.85
2017-02-19T17:23:10.567Z,49.56
2017-02-19T17:25:34.021Z,50.59
2017-02-19T17:27:57.506Z,50.87
2017-02-19T17:30:22.164Z,51.25
2017-02-19T17:32:45.468Z,50.87
2017-02-19T17:35:09.025Z,49.76
2017-02-19T17:37:32.383Z,50.04
2017-02-19T17:39:55.988Z,50.04
2017-02-19T17:42:19.445Z,49.28
2017-02-19T17:44:42.788Z,50.04
2017-02-19T17:47:06.226Z,49.47
2017-02-19T17:49:29.538Z,49.37
2017-02-19T17:51:52.805Z,50.13
2017-02-19T17:54:16.062Z,49.95
2017-02-19T17:56:39.431Z,49.37
2017-02-19T17:59:02.877Z,49.95
2017-02-19T18:01:26.546Z,50.07
2017-02-19T18:03:51.252Z,49.47
2017-02-19T18:06:17.864Z,50.04
2017-02-19T18:08:40.735Z,49.95
2017-02-19T18:11:06.240Z,50.04
2017-02-19T18:13:30.607Z,49.47
2017-02-19T18:15:47.559Z,50.61
2017-02-19T18:18:11.167Z,50.42
2017-02-19T18:20:36.199Z,49.95
2017-02-19T18:23:00.958Z,49.95
2017-02-19T18:25:26.036Z,50.04
2017-02-19T18:27:49.431Z,50.23
2017-02-19T18:30:12.953Z,50.99
2017-02-19T18:32:38.518Z,50.61
2017-02-19T18:35:02.001Z,50.04
2017-02-19T18:37:25.639Z,50.9
2017-02-19T18:39:49.237Z,49.76
2017-02-19T18:42:14.434Z,49.85
2017-02-19T18:44:39.609Z,49.95
2017-02-19T18:48:42.724Z,50.42
2017-02-19T18:51:05.933Z,50.61
2017-02-19T18:53:29.504Z,51.56
2017-02-19T18:55:53.136Z,50.9
2017-02-19T18:58:16.864Z,50.61
2017-02-19T19:00:40.565Z,50.52
2017-02-19T19:03:04.967Z,50.13
2017-02-19T19:05:28.424Z,50.13
2017-02-19T19:07:52.321Z,50.61
2017-02-19T19:10:17.009Z,50.42
2017-02-19T19:12:42.325Z,50.42
2017-02-19T19:15:05.813Z,50.23
2017-02-19T19:17:29.826Z,50.71
2017-02-19T19:19:54.368Z,51.56
2017-02-19T19:22:18.000Z,51.28
2017-02-19T19:24:43.205Z,51.28
2017-02-19T19:27:08.736Z,51.66
2017-02-19T19:29:32.282Z,51.21
2017-02-19T19:31:55.693Z,51.02
2017-02-19T19:34:19.198Z,49.97
2017-02-19T19:36:42.599Z,50.13
2017-02-19T19:39:06.035Z,49.95
2017-02-19T19:41:29.469Z,50.42
2017-02-19T19:43:52.968Z,50.42
2017-02-19T19:46:16.551Z,50.71
2017-02-19T19:48:31.943Z,50.8
2017-02-19T19:50:55.329Z,50.42
2017-02-19T19:53:18.706Z,51.73
2017-02-19T19:55:42.189Z,51.56
2017-02-19T19:58:05.651Z,52.01
2017-02-19T20:00:29.024Z,51.18
2017-02-19T20:02:53.410Z,51.92
2017-02-19T20:05:17.012Z,50.99
2017-02-19T20:07:41.342Z,50.71
2017-02-19T20:10:04.703Z,51.54
2017-02-19T20:12:28.097Z,52.11
2017-02-19T20:14:51.622Z,53.16
2017-02-19T20:17:15.128Z,52.78
2017-02-19T20:19:39.867Z,53.52
2017-02-19T20:22:03.380Z,52.78
2017-02-19T20:24:26.764Z,52.68
2017-02-19T20:26:50.217Z,52.01
2017-02-19T20:29:13.751Z,52.2
2017-02-19T20:31:37.250Z,52.3
2017-02-19T20:34:02.376Z,52.4
2017-02-19T20:36:25.660Z,52.59
2017-02-19T20:38:49.022Z,53.23
2017-02-19T20:41:12.329Z,53.32
2017-02-19T20:43:36.038Z,53.42
2017-02-19T20:45:59.388Z,53.04
2017-02-19T20:48:22.792Z,53.06
2017-02-19T20:50:46.137Z,52.11
2017-02-19T20:53:09.523Z,52.75
2017-02-19T20:55:33.068Z,53.61
2017-02-19T20:57:34.219Z,53.23
2017-02-19T20:59:57.673Z,53.42
2017-02-19T21:02:12.982Z,52.59
2017-02-19T21:04:36.236Z,52.56
2017-02-19T21:06:59.831Z,53.04
2017-02-19T21:09:23.742Z,52.11
2017-02-19T21:11:47.043Z,51.73
2017-02-19T21:14:10.789Z,52.01
2017-02-19T21:16:34.144Z,50.87
2017-02-19T21:18:57.775Z,51.73
2017-02-19T21:21:21.358Z,52.28
2017-02-19T21:23:45.024Z,51.92
2017-02-19T21:26:09.435Z,50.97
2017-02-19T21:28:32.764Z,51.54
2017-02-19T21:30:56.113Z,51.92
2017-02-19T21:33:20.663Z,50.87
2017-02-19T21:35:46.567Z,50.49
2017-02-19T21:38:12.094Z,50.78
2017-02-19T21:40:37.698Z,50.78
2017-02-19T21:43:01.603Z,50.78
2017-02-19T21:45:12.720Z,52.3
2017-02-19T21:47:38.442Z,50.49
2017-02-19T21:50:04.653Z,50.11
2017-02-19T21:52:28.050Z,50.4
2017-02-19T21:54:51.401Z,50.11
2017-02-19T21:57:14.874Z,50.78
2017-02-19T21:59:39.414Z,50.68
2017-02-19T22:02:03.089Z,50.11
2017-02-19T22:04:27.353Z,50.01
2017-02-19T22:06:52.695Z,50.01
2017-02-19T22:09:17.390Z,51.54
2017-02-19T22:11:41.435Z,51.51
2017-02-19T22:14:05.677Z,51.64
2017-02-19T22:16:29.074Z,51.73
2017-02-19T22:20:29.507Z,51.35
2017-02-19T22:22:53.152Z,50.78
2017-02-19T22:25:18.597Z,49.82
2017-02-19T22:27:44.024Z,50.78
2017-02-19T22:30:08.322Z,51.64
2017-02-19T22:32:31.760Z,50.59
2017-02-19T22:34:55.106Z,50.78
2017-02-19T22:37:17.114Z,51.73
2017-02-19T22:39:40.872Z,51.73
2017-02-19T22:42:04.001Z,50.68
2017-02-19T22:44:27.422Z,50.97
2017-02-19T22:46:50.899Z,50.78
2017-02-19T22:49:15.168Z,51.06
2017-02-19T22:51:38.635Z,50.87
2017-02-19T22:54:02.066Z,50.78
2017-02-19T22:56:25.261Z,51.06
2017-02-19T22:58:48.664Z,51.06
2017-02-19T23:01:12.205Z,51.99
2017-02-19T23:03:36.067Z,51.89
2017-02-19T23:06:00.564Z,51.64
2017-02-19T23:08:23.838Z,51.25
2017-02-19T23:10:54.057Z,50.78
2017-02-19T23:13:17.611Z,51.92
2017-02-19T23:15:40.900Z,51.06
2017-02-19T23:18:04.324Z,51.82
2017-02-19T23:20:14.923Z,51.16
2017-02-19T23:22:38.624Z,51.73
2017-02-19T23:26:39.735Z,51.82
2017-02-19T23:29:03.514Z,51.99
2017-02-19T23:31:27.002Z,52.11
2017-02-19T23:33:50.279Z,52.47
2017-02-19T23:36:14.029Z,52.84
2017-02-19T23:38:37.163Z,52.28
2017-02-19T23:41:00.545Z,53.13
2017-02-19T23:43:23.853Z,53.04
2017-02-19T23:45:47.146Z,53.52
2017-02-19T23:48:12.645Z,53.23
2017-02-19T23:50:29.533Z,53.52
2017-02-19T23:52:52.801Z,53.52
2017-02-19T23:55:16.250Z,53.23
2017-02-19T23:57:39.733Z,53.52
